Terminal Aerodrome Forecast
Issued by NWS Corpus Christi, TX

Home | Current Version | Previous Version | Text Only | Print | Product List | Glossary On
Versions: 1 2 3 4 5 6 7 8 9 10 11 12 13 14 15 16 17 18 19 20 21 22 23 24 25
613
FTUS44 KCRP 251351 AAA
TAFCRP
TAF AMD
KCRP 251351Z 2514/2612 16006KT P6SM FEW009 SCT019 SCT250
      TEMPO 2514/2515 FEW009 BKN019
     FM251500 15014G18KT P6SM SCT025 BKN035
     FM251900 12020G28KT P6SM SCT030 BKN040
     FM260200 14014KT P6SM BKN015=

USA.gov is the U.S. government's official web portal to all federal, state and local government web resources and services.